Terminal Aerodrome Forecast
Issued by NWS Wilmington, OH

Current Version | Previous Version | Graphics & Text | Print | Product List | Glossary On
Versions: 1 2 3 4 5 6 7 8 9 10 11 12 13 14 15 16 17 18 19 20
000
FTUS41 KILN 211742
TAFDAY
TAF
KDAY 211742Z 2118/2218 13007KT P6SM FEW040 BKN200
     FM212000 19006KT P6SM SCT045 BKN200
     FM212200 19005KT P6SM VCTS BKN045CB
      TEMPO 2123/2202 4SM -TSRA BR BKN035CB
     FM220200 20004KT P6SM VCSH SCT045 BKN120
     FM220600 19004KT P6SM BKN080
     FM221300 24010KT P6SM BKN035=

USA.gov is the U.S. government's official web portal to all federal, state and local government web resources and services.